»·PEaware :: N912NB KAPA-KTEX

N912NB :: KAPA-KTEX

FLIGHT INFORMATION

Flight Status: Arrived
Operator: Privately registered:
United States
More flights under this callsign
Pilot: Patricio R. (14780)
Aircraft: BOEING 737-200
(B732)
More flights by this aircraft type
Origin: KAPA Centennial
United States
Destination: KTEX Telluride Regl
United States
More flights between these airports :: More routes between these airports
Route: +ROCKI3 MTJ V68 ETL
File this flight plan on PilotEdge
Remarks: PBN / A1B2 DOF / 180819 REG / N275SB OPR / XXX RMK / TCAS SIMBRIEF
Altitude:
(Current/Filed)
28,000ft
Speed:
(Current/Filed)
448kts
Departed: 18-Aug-18 08:42 PM
Arrived: 18-Aug-18 09:31 PM
Distance/Time
Traveled:
172nm/0:49
Distance/Time
To Go:
Arrived

Flight Plot

Page will automatically refresh every two minutes.

Flight plan parsing failed; only flown route is shown


Map Options




Map Legend


Flown Route
Filed Route
Departure Airport
Arrival Airport
Navaid (VOR, NDB)
Fix

Horizontal Profiles

Position Reports

Time Latitude Longitude Heading Altitude Ground
Speed
18-Aug-18 20:28 39.579204 -104.848776 90 5816ft 0kts
18-Aug-18 20:29 39.579204 -104.848777 90 5816ft 0kts
18-Aug-18 20:30 39.579204 -104.848777 90 5816ft 0kts
18-Aug-18 20:31 39.579204 -104.848777 90 5816ft 0kts
18-Aug-18 20:32 39.579204 -104.848777 90 5816ft 0kts
18-Aug-18 20:33 39.579204 -104.848777 90 5816ft 0kts
18-Aug-18 20:34 39.579204 -104.848777 89 5816ft 0kts
18-Aug-18 20:35 39.579204 -104.848777 90 5816ft 0kts
18-Aug-18 20:36 39.578967 -104.848789 260 5816ft 2kts
18-Aug-18 20:37 39.579038 -104.849409 275 5821ft 6kts
18-Aug-18 20:38 39.583457 -104.850028 358 5789ft 17kts
18-Aug-18 20:39 39.583972 -104.850085 340 5785ft 0kts
18-Aug-18 20:40 39.583983 -104.850091 338 5785ft 0kts
18-Aug-18 20:41 39.583983 -104.850091 338 5785ft 0kts
18-Aug-18 20:42 39.583983 -104.850091 338 5785ft 0kts
18-Aug-18 20:43 39.578168 -104.851191 178 5829ft 95kts
18-Aug-18 20:44 39.541472 -104.850217 177 6762ft 192kts
18-Aug-18 20:45 39.482261 -104.849633 178 8597ft 236kts
18-Aug-18 20:46 39.447211 -104.921550 287 10722ft 259kts
18-Aug-18 20:47 39.464712 -104.998725 289 12126ft 286kts
18-Aug-18 20:48 39.487533 -105.096613 289 14524ft 286kts
18-Aug-18 20:49 39.505871 -105.173377 289 16026ft 292kts
18-Aug-18 20:50 39.530208 -105.271116 289 17707ft 300kts
18-Aug-18 20:51 39.556527 -105.374040 289 18719ft 304kts
18-Aug-18 20:52 39.582977 -105.479219 279 20234ft 309kts
18-Aug-18 20:53 39.561600 -105.588734 255 21618ft 321kts
18-Aug-18 20:54 39.532227 -105.698693 253 22906ft 326kts
18-Aug-18 20:55 39.501479 -105.809891 253 24134ft 330kts
18-Aug-18 20:56 39.470314 -105.922392 253 25175ft 335kts
18-Aug-18 20:57 39.438591 -106.036338 253 26129ft 339kts
18-Aug-18 20:58 39.406296 -106.151996 253 26989ft 344kts
18-Aug-18 20:59 39.373657 -106.268353 253 27776ft 347kts
18-Aug-18 21:00 39.340341 -106.386621 253 28433ft 352kts
18-Aug-18 21:01 39.305915 -106.508411 253 28484ft 367kts
18-Aug-18 21:02 39.270415 -106.633301 253 28365ft 376kts
18-Aug-18 21:03 39.234929 -106.760660 254 28370ft 381kts
18-Aug-18 21:04 39.173785 -106.871226 220 28397ft 407kts
18-Aug-18 21:05 39.092417 -106.969617 234 28370ft 401kts
18-Aug-18 21:06 39.020708 -107.079712 236 28369ft 402kts
18-Aug-18 21:07 38.950805 -107.191703 237 28368ft 404kts
18-Aug-18 21:08 38.880369 -107.304276 237 28360ft 407kts
18-Aug-18 21:09 38.809291 -107.417073 238 28360ft 406kts
18-Aug-18 21:10 38.738654 -107.530437 238 28230ft 410kts
18-Aug-18 21:11 38.667681 -107.643718 238 28227ft 405kts
18-Aug-18 21:12 38.601769 -107.748105 238 27292ft 365kts
18-Aug-18 21:13 38.538796 -107.848242 238 25565ft 357kts
18-Aug-18 21:14 38.464587 -107.931940 218 23686ft 365kts
18-Aug-18 21:15 38.379387 -107.998346 218 21937ft 355kts
18-Aug-18 21:16 38.296501 -108.062372 217 20239ft 345kts
18-Aug-18 21:17 38.215456 -108.124755 216 18436ft 341kts
18-Aug-18 21:18 38.135491 -108.186088 215 16809ft 332kts
18-Aug-18 21:19 38.059752 -108.248709 229 15234ft 318kts
18-Aug-18 21:20 38.043189 -108.344352 298 13504ft 291kts
18-Aug-18 21:21 38.069091 -108.440131 302 12130ft 278kts
18-Aug-18 21:22 38.129630 -108.446976 54 11556ft 247kts
18-Aug-18 21:23 38.104371 -108.379160 150 11584ft 255kts
18-Aug-18 21:24 38.053191 -108.320789 103 11580ft 244kts
18-Aug-18 21:25 38.034932 -108.244121 112 11561ft 221kts
18-Aug-18 21:26 38.005320 -108.179651 118 11849ft 192kts
18-Aug-18 21:27 37.989611 -108.115592 99 11660ft 195kts
18-Aug-18 21:28 37.980070 -108.050224 94 11055ft 170kts
18-Aug-18 21:29 37.971501 -107.993698 102 10185ft 157kts
18-Aug-18 21:30 37.960666 -107.941424 103 9388ft 152kts
18-Aug-18 21:31 37.951902 -107.897480 105 9084ft 45kts
18-Aug-18 21:32 37.951717 -107.896683 70 9092ft 0kts

Navigation Log

Ident Type
Flight plan parsing failed, navigation log unavailable